Logo AVAMET
Benvolgut visitant, si us plau, ingressa Recuperar contrasenya
AVAMET paisatges

Callosa d′en Sarrià el Colomer

Dades diàries. Acumulats / Últims 30 dies disponibles

Data Temperatura (°C) Humitat rel. (%) Pressió rel. (hPa) Vent (km/h) Precipitació
Mínima Mitjana Màxima Amplitud
tèrmica
Mínima Mitjana Màxima Mínima Mitjana Màxima Predom. Mitjana Ràfega
màxima
Total
(mm)
Índex-n
Mínima Mitjana Màxima Mínima Mitjana Màxima n
0 a 1
P0 max
mm 5'
Dades mensuals acumulades fins l'últim dia disponible
08/2020 20,2 22,3 24,1 26,3 27,9 31,2 35,3 15,1 29 68 92 1.010 1.014 1.018   3,9 35,4 0,0
Dades anuals acumulades fins l'últim dia disponible
2020 4,5 14,4 26,2 18,3 10,1 22,6 36,3 31,8 0 66 97 1.001 1.017 1.033   6,2 99,8 434,6
Últims 30 dies disponibles
09-08-2020 22,8     27,3     32,4 9,6 37 52 68 1.012 1.014 1.016 S 3,4 22,5 0,0
08-08-2020 22,0     26,8     32,8 10,8 34 54 75 1.015 1.017 1.018 S 3,5 27,4 0,0
07-08-2020 20,2     25,6     30,7 10,5 36 55 72 1.016 1.017 1.018 SSE 3,4 24,1 0,0
06-08-2020 21,3     25,2     29,0 7,7 36 68 89 1.013 1.015 1.016 S 4,3 25,7 0,0
05-08-2020 21,5     24,7     27,9 6,4 69 79 88 1.011 1.012 1.013 SSE 4,4 27,4 0,0
04-08-2020 23,1     25,3     28,5 5,4 65 81 91 1.011 1.012 1.013 SE 2,8 20,9 0,0
03-08-2020 24,1     25,9     29,1 5,0 67 81 91 1.010 1.011 1.013 SE 4,7 32,2 0,0
02-08-2020 22,3     27,6     35,3 13,0 45 70 92 1.011 1.012 1.013 SE 5,4 35,4 0,0
01-08-2020 23,1     28,5     35,3 12,2 29 69 91 1.011 1.013 1.015 SSE 3,3 22,5 0,0
31-07-2020 25,6     28,8     32,3 6,7 42 60 87 1.012 1.013 1.014 SSE 4,1 32,2 0,0
30-07-2020 25,6     29,9     36,3 10,7 42 45 50 1.012 1.012 1.013 SSE 3,1 27,4 0,0
29-07-2020 26,1     29,1     32,5 6,4 42 52 63 1.011 1.013 1.014 S 13,5 38,6 0,0
28-07-2020 26,2     30,5     35,6 9,4 28 40 55 1.011 1.012 1.015 SSO 4,9 27,4 0,0
27-07-2020 23,8     28,7     34,7 10,9 26 42 72 1.013 1.015 1.015 SSO 4,4 24,1 0,0
26-07-2020 21,3     26,8     31,9 10,6 44 63 81 1.012 1.013 1.015 SSO 2,5 20,9 0,0
25-07-2020 22,0     25,7     29,8 7,8 38 64 84 1.012 1.013 1.014 S 3,4 24,1 0,0
24-07-2020 21,0     25,5     29,6 8,6 48 63 81 1.011 1.012 1.013 SSE 5,4 25,7 0,0
23-07-2020 22,7     26,8     31,1 8,4 34 49 67 1.012 1.014 1.016 S 5,9 22,5 0,0
22-07-2020 24,6     27,0     30,2 5,6 44 57 72 1.014 1.016 1.018 SO 12,5 41,8 0,0
21-07-2020 21,6     27,3     32,9 11,3 24 48 77 1.015 1.016 1.017 SO 8,2 37,0 0,0
20-07-2020 20,9     24,3     28,3 7,4 62 77 87 1.014 1.015 1.017 S 3,4 24,1 0,0
19-07-2020 20,1     24,6     30,0 9,9 42 70 89 1.013 1.014 1.015 SSE 6,0 32,2 0,0
18-07-2020 20,2     23,8     28,2 8,0 68 79 83 1.013 1.014 1.015 ESE 2,3 25,7 0,0
17-07-2020 19,9     23,2     26,4 6,5 63 75 84 1.013 1.015 1.016 S 5,4 29,0 0,0
16-07-2020 19,7     23,7     27,2 7,5 50 66 83 1.015 1.017 1.018 S 4,3 25,7 0,0
15-07-2020 19,9     24,0     27,7 7,8 39 64 85 1.014 1.015 1.017 S 4,3 27,4 0,0
14-07-2020 21,4     24,5     28,6 7,2 53 64 89 1.013 1.015 1.016 SSO 6,3 27,4 0,8
13-07-2020 22,4     26,6     30,7 8,3 44 55 77 1.014 1.016 1.017 S 12,0 40,2 0,0
12-07-2020 21,8     25,2     29,9 8,1 47 65 77 1.015 1.017 1.018 SO 6,6 35,4 0,0
11-07-2020 24,2     26,9     30,2 6,0 49 59 76 1.012 1.014 1.016 OSO 11,2 40,2 0,0
Últims 13 mesos disponibles
07/2020 19,2 22,0 26,2 25,9 26,1 30,4 36,3 17,1 40 63 84 1.010 1.014 1.019 S 5,8 41,8 1,2
06/2020 13,4 17,9 21,9 22,5 19,6 26,9 33,0 19,6 44 67 86 1.003 1.013 1.020 SSE 5,7 72,4 71,2
05/2020 13,1 16,8 21,3 20,8 19,1 25,4 30,4 17,3 47 60 78 1.004 1.015 1.025 SSO 6,7 53,1 23,2
04/2020 8,0 12,2 16,1 15,6 15,1 19,6 25,6 17,6 45 70 88 1.004 1.014 1.024 SSO 6,6 59,5 24,8
03/2020 6,7 11,3 17,1 14,3 10,1 18,0 24,7 18,0 42 67 90 1.006 1.015 1.023 OSO 9,0 96,6 84,2
02/2020 5,7 10,0 14,6 14,5 14,3 19,2 26,8 21,1 30 68 91 1.013 1.024 1.031 SSO 4,3 49,9 4,6
01/2020 4,5 8,2 14,4 11,7 11,3 16,0 21,2 16,7 49 71 94 1.012 1.023 1.030 SO 6,0 99,8 225,4
12/2019 6,6 10,9 15,9 13,9 12,4 17,6 23,4 16,8 47 69 87 1.002 1.017 1.031 SSO 6,7 109,4 158,4
11/2019 7,7 12,3 19,9 15,3 14,0 18,9 27,2 19,5 42 56 84 997 1.009 1.017 O 10,1 86,9 14,8
10/2019 10,7 15,8 19,2 19,7 16,0 24,2 28,6 17,9 44 68 84 1.007 1.015 1.020 SSO 4,6 75,6 58,2
09/2019 12,0 19,3 22,9 22,8 22,0 27,0 32,4 20,4 58 75 87 1.009 1.016 1.021 SSO 6,3 69,2 197,4
08/2019 18,7 21,9 25,4 25,8 22,6 30,1 35,3 16,6 44 67 80 1.009 1.014 1.018 S 6,0 45,1 28,0
07/2019 19,7 22,4 26,5 26,6 28,1 31,2 39,5 19,8 32 58 81 1.004 1.013 1.019 SSO 6,4 61,2 1,6
Tots els anys disponibles
2019 3,5 14,4 26,5 18,2 11,6 22,4 39,5 36,0 31 63 91 994 1.015 1.031 SSO 7,0 109,4 744,0
2018 3,2 14,5 26,9 18,1 8,8 22,2 35,4 32,2 35 65 87 992 1.014 1.032 SSO 6,3 107,8 548,2
2017 1,3 9,2 16,8 13,0 7,6 16,8 27,8 26,5 62 64 66 1.018 1.018 1.019 97,0 609,0
2016 4,1 14,5 25,9 18,3 12,2 22,1 36,6 32,5 57 64 76 1.013 1.017 1.025 93,0 486,4
2015 1,1 14,5 20,8 18,7 21,9 22,9 38,2 37,1 52 62 73 1.015 1.019 1.029 8,6 97,0 428,4
Temperatura (°C)
Humitat relativa (%)
Velocitat del vent i ràfega màxima (km/h)
Direcció del vent (°)
Pressió (hPa)
Precipitació (mm)
Nota sobre les dades: s'avisa a l'usuari de la provisionalitat i no oficialitat d'aquestes dades
Logo AVAMET blanc
Web allotjada a Sollutia
Llicència de Creative CommonsLa web d'AVAMET i els seus continguts estan subjectes a una llicència de
Reconeixement - No Comercial - Compartir igual
Últimes estacions: Cirat (Estació pròpia d'AVAMET), Torremocha del Jiloca (Limítrofe/Soci), Orihuela - Arneva (MeteOrihuela), Enguera - Antolí (Soci), Vilamarxant - La Pedrera (Soci), Càlig (Ajuntament Soci), Quesa - Hotel La Rocha (Soci) - - -